Time;durP1;ratioP1;P1;durP2;ratioP2;P2;SDS_P1;SDS_P2;PMS_P1;PMS_P2;Temp;Humidity;BMP_temperature;BMP_pressure;BME280_temperature;BME280_humidity;BME280_pressure;Samples;Min_cycle;Max_cycle;Signal;HPM_P1;HPM_P2
2022/10/27 00:01:57;;;;;;;3.53;1.30;;;21.90;56.80;;;;;;5053161;28;20518;-48
2022/10/27 00:04:23;;;;;;;2.83;1.42;;;21.90;56.90;;;;;;5052242;28;20052;-51
2022/10/27 00:06:49;;;;;;;3.42;1.50;;;21.90;56.90;;;;;;5049380;28;20037;-51
2022/10/27 00:09:15;;;;;;;3.38;1.30;;;21.90;56.90;;;;;;5048581;28;20342;-48
2022/10/27 00:11:40;;;;;;;3.65;1.60;;;21.90;56.90;;;;;;5052383;28;20028;-49
2022/10/27 00:14:06;;;;;;;3.15;1.38;;;21.90;56.90;;;;;;5050819;28;20418;-48
2022/10/27 00:16:32;;;;;;;3.35;1.25;;;21.90;56.90;;;;;;5052308;28;20076;-50
2022/10/27 00:18:58;;;;;;;2.40;1.30;;;21.80;56.80;;;;;;5051961;28;20044;-52
2022/10/27 00:21:23;;;;;;;2.95;1.50;;;21.80;56.80;;;;;;5051801;28;20017;-48
2022/10/27 00:23:50;;;;;;;2.72;1.33;;;21.80;56.90;;;;;;5052925;28;20409;-48
2022/10/27 00:26:18;;;;;;;3.30;1.45;;;21.90;57.00;;;;;;5051643;28;20039;-51
2022/10/27 00:28:44;;;;;;;3.00;1.42;;;21.80;57.00;;;;;;5051818;28;20071;-49
2022/10/27 00:31:17;;;;;;;3.15;1.75;;;21.90;57.10;;;;;;5051213;28;20460;-49
2022/10/27 00:33:46;;;;;;;3.83;1.50;;;21.80;57.00;;;;;;5052434;28;20436;-47
2022/10/27 00:36:15;;;;;;;2.03;1.23;;;21.90;57.10;;;;;;5051233;28;20131;-50
2022/10/27 00:38:42;;;;;;;2.60;1.48;;;21.80;57.00;;;;;;5049084;28;20037;-48
2022/10/27 00:41:18;;;;;;;4.15;1.40;;;21.80;57.10;;;;;;5050903;28;20032;-49
2022/10/27 00:43:44;;;;;;;2.80;1.25;;;21.90;57.10;;;;;;5050018;28;20036;-51
2022/10/27 00:46:26;;;;;;;2.65;1.30;;;21.80;57.10;;;;;;5050188;28;20040;-48
2022/10/27 00:48:59;;;;;;;3.05;1.20;;;21.80;57.10;;;;;;5050983;28;20020;-49
2022/10/27 00:51:26;;;;;;;2.08;1.15;;;21.80;57.10;;;;;;5049956;28;20041;-48
2022/10/27 00:53:54;;;;;;;2.20;1.15;;;21.80;57.10;;;;;;5048192;28;21623;-49
2022/10/27 00:56:21;;;;;;;4.68;1.48;;;21.80;57.10;;;;;;5051157;28;20039;-49
2022/10/27 00:58:47;;;;;;;2.42;1.30;;;21.80;57.20;;;;;;5051116;28;20025;-47
2022/10/27 01:01:13;;;;;;;3.88;1.25;;;21.80;57.20;;;;;;5049619;28;20033;-50
2022/10/27 01:03:40;;;;;;;2.67;1.70;;;21.80;57.10;;;;;;5048007;28;20360;-49
2022/10/27 01:06:05;;;;;;;2.92;1.25;;;21.80;57.20;;;;;;5051420;28;20091;-49
2022/10/27 01:08:31;;;;;;;1.92;1.10;;;21.80;57.20;;;;;;5050860;28;20067;-48
2022/10/27 01:10:57;;;;;;;1.88;1.20;;;21.80;57.20;;;;;;5049899;28;20021;-50
2022/10/27 01:13:23;;;;;;;4.43;1.42;;;21.80;57.20;;;;;;5051024;28;20115;-52
2022/10/27 01:16:11;;;;;;;3.25;1.50;;;21.80;57.20;;;;;;5050010;28;20053;-50
2022/10/27 01:18:42;;;;;;;2.85;1.30;;;21.80;57.20;;;;;;5050237;28;20412;-49
2022/10/27 01:21:27;;;;;;;3.05;1.38;;;21.70;57.20;;;;;;5049461;28;20033;-49
2022/10/27 01:24:21;;;;;;;3.05;1.70;;;21.80;57.10;;;;;;5051337;28;20505;-49
2022/10/27 01:26:48;;;;;;;3.63;1.40;;;21.70;57.00;;;;;;5032210;28;20140;-48
2022/10/27 01:29:32;;;;;;;2.55;1.40;;;21.80;57.10;;;;;;5051134;28;20106;-52
2022/10/27 01:32:16;;;;;;;2.93;1.60;;;21.70;57.00;;;;;;5050054;28;20040;-53
2022/10/27 01:34:49;;;;;;;2.45;1.35;;;21.70;57.00;;;;;;5050839;28;20291;-54
2022/10/27 01:37:38;;;;;;;2.88;1.27;;;21.70;56.90;;;;;;5049124;28;20029;-52
2022/10/27 01:40:08;;;;;;;1.92;1.20;;;21.70;57.60;;;;;;5051171;28;20029;-48
2022/10/27 01:42:41;;;;;;;2.58;1.30;;;21.70;57.00;;;;;;5049963;28;20200;-48
2022/10/27 01:45:11;;;;;;;1.95;1.20;;;21.70;56.90;;;;;;5050851;28;20406;-47
2022/10/27 01:47:38;;;;;;;2.97;1.23;;;21.70;56.90;;;;;;5050070;28;20036;-53
2022/10/27 01:50:05;;;;;;;4.40;1.45;;;21.70;57.00;;;;;;5050267;28;20063;-49
2022/10/27 01:52:41;;;;;;;2.58;1.23;;;21.70;57.00;;;;;;5049203;28;20025;-48
2022/10/27 01:55:36;;;;;;;2.55;1.20;;;21.70;56.90;;;;;;5048650;28;20090;-46
2022/10/27 01:58:43;;;;;;;2.40;1.20;;;21.70;56.90;;;;;;5049419;28;20184;-50
2022/10/27 02:01:46;;;;;;;2.35;1.15;;;21.70;56.90;;;;;;5016440;28;20041;-49
2022/10/27 02:04:19;;;;;;;2.58;1.40;;;21.70;57.00;;;;;;5040937;28;20174;-49
2022/10/27 02:07:29;;;;;;;2.30;1.35;;;21.70;57.00;;;;;;5048445;28;20044;-48
2022/10/27 02:10:04;;;;;;;3.15;1.45;;;21.70;57.00;;;;;;4970271;28;20099;-49
2022/10/27 02:12:32;;;;;;;1.50;1.00;;;21.60;57.00;;;;;;4970762;28;20447;-49
2022/10/27 02:15:01;;;;;;;2.35;1.10;;;21.70;57.10;;;;;;5010934;28;20049;-51
2022/10/27 02:17:47;;;;;;;1.80;1.20;;;21.70;57.10;;;;;;5050115;28;20025;-49
2022/10/27 02:20:20;;;;;;;2.22;1.13;;;21.60;57.00;;;;;;5047502;28;20029;-52
2022/10/27 02:22:49;;;;;;;2.38;1.17;;;21.70;57.10;;;;;;5050193;28;20390;-48
2022/10/27 02:25:15;;;;;;;1.83;1.00;;;21.70;57.10;;;;;;5049989;28;20033;-47
2022/10/27 02:27:47;;;;;;;2.53;1.20;;;21.70;57.10;;;;;;5049275;28;20036;-47
2022/10/27 02:30:13;;;;;;;2.95;1.00;;;21.60;57.10;;;;;;5048013;28;20044;-51
2022/10/27 02:32:40;;;;;;;3.25;1.40;;;21.70;57.10;;;;;;5050302;28;20033;-51
2022/10/27 02:35:09;;;;;;;2.15;1.10;;;21.60;57.10;;;;;;5049314;28;20031;-49
2022/10/27 02:37:40;;;;;;;2.67;1.20;;;21.70;57.10;;;;;;5050158;28;21775;-50
2022/10/27 02:40:08;;;;;;;3.03;1.20;;;21.60;57.10;;;;;;5049468;28;20318;-48
2022/10/27 02:42:33;;;;;;;2.65;1.30;;;21.60;57.20;;;;;;5048252;28;20017;-48
2022/10/27 02:44:59;;;;;;;2.30;1.30;;;21.60;57.10;;;;;;5049647;28;20122;-50
2022/10/27 02:47:25;;;;;;;1.95;1.05;;;21.60;57.10;;;;;;5050322;28;20036;-50
2022/10/27 02:49:51;;;;;;;2.55;1.05;;;21.60;57.10;;;;;;5049444;28;20029;-48
2022/10/27 02:52:17;;;;;;;3.03;1.05;;;21.70;57.20;;;;;;5049445;28;20029;-48
2022/10/27 02:54:47;;;;;;;2.20;1.30;;;21.60;57.10;;;;;;5049371;28;20102;-48
2022/10/27 02:57:18;;;;;;;2.22;1.27;;;21.60;57.10;;;;;;5048811;28;20029;-49
2022/10/27 02:59:44;;;;;;;3.03;1.38;;;21.60;57.00;;;;;;5047970;28;20033;-49
2022/10/27 03:02:10;;;;;;;2.95;1.42;;;21.60;57.10;;;;;;5048957;28;20029;-50
2022/10/27 03:04:36;;;;;;;2.20;1.13;;;21.60;57.00;;;;;;5049669;28;20155;-49
2022/10/27 03:07:02;;;;;;;3.45;1.20;;;21.60;57.00;;;;;;5049354;28;20047;-51
2022/10/27 03:09:28;;;;;;;2.00;1.25;;;21.60;57.10;;;;;;5052207;28;20033;-48
2022/10/27 03:11:54;;;;;;;1.77;1.05;;;21.60;57.10;;;;;;5053861;28;20025;-47
2022/10/27 03:14:20;;;;;;;1.88;1.00;;;21.60;57.00;;;;;;5053652;28;20020;-48
2022/10/27 03:16:45;;;;;;;2.47;1.55;;;21.60;57.00;;;;;;5053187;28;20065;-49
2022/10/27 03:19:12;;;;;;;1.58;1.10;;;21.60;57.10;;;;;;5048180;28;20033;-49
2022/10/27 03:21:38;;;;;;;2.38;1.15;;;21.60;57.00;;;;;;5053221;28;20368;-52
2022/10/27 03:24:04;;;;;;;3.88;1.23;;;21.60;57.00;;;;;;5054007;28;20021;-52
2022/10/27 03:26:30;;;;;;;2.38;1.17;;;21.60;57.00;;;;;;5053072;28;20047;-49
2022/10/27 03:28:56;;;;;;;2.15;1.20;;;21.60;57.00;;;;;;5051693;28;20048;-50
2022/10/27 03:31:22;;;;;;;3.13;1.45;;;21.60;57.00;;;;;;5052356;28;20048;-50
2022/10/27 03:33:47;;;;;;;2.55;1.25;;;21.60;57.00;;;;;;5054295;28;20108;-50
2022/10/27 03:36:13;;;;;;;2.25;1.20;;;21.50;56.90;;;;;;5053608;28;20018;-48
2022/10/27 03:38:39;;;;;;;4.00;1.50;;;21.50;56.90;;;;;;5053019;28;20036;-50
2022/10/27 03:41:05;;;;;;;1.95;1.17;;;21.60;57.00;;;;;;5049228;28;20159;-52
2022/10/27 03:43:31;;;;;;;1.48;1.23;;;21.50;56.90;;;;;;5052679;28;20021;-48
2022/10/27 03:45:57;;;;;;;2.50;1.30;;;21.50;56.80;;;;;;5052530;28;20037;-49
2022/10/27 03:48:23;;;;;;;2.05;1.20;;;21.50;56.90;;;;;;5053322;28;20445;-52
2022/10/27 03:50:50;;;;;;;3.25;1.52;;;21.50;56.80;;;;;;5052721;28;20032;-48
2022/10/27 03:53:17;;;;;;;2.00;1.15;;;21.50;56.90;;;;;;5052630;28;21411;-52
2022/10/27 03:55:43;;;;;;;1.95;1.25;;;21.50;56.80;;;;;;5052751;28;20033;-50
2022/10/27 03:58:14;;;;;;;3.53;1.10;;;21.50;56.90;;;;;;5052803;28;20376;-51
2022/10/27 04:00:40;;;;;;;2.25;1.15;;;21.50;56.90;;;;;;5051009;28;20371;-50
2022/10/27 04:03:06;;;;;;;2.45;1.40;;;21.50;56.90;;;;;;5052257;28;20043;-52
2022/10/27 04:05:32;;;;;;;2.35;1.08;;;21.50;57.00;;;;;;5049230;28;20059;-50
2022/10/27 04:07:59;;;;;;;3.25;1.10;;;21.50;57.00;;;;;;5053042;28;20029;-50
2022/10/27 04:10:25;;;;;;;3.97;1.20;;;21.50;57.00;;;;;;5048922;28;20100;-52
2022/10/27 04:12:52;;;;;;;2.10;1.10;;;21.50;57.00;;;;;;5052468;28;20116;-50
2022/10/27 04:15:19;;;;;;;2.17;1.40;;;21.50;57.00;;;;;;5050788;28;20472;-51
2022/10/27 04:17:46;;;;;;;4.85;1.25;;;21.50;57.00;;;;;;5052809;28;20033;-52
2022/10/27 04:20:13;;;;;;;1.80;1.20;;;21.50;57.00;;;;;;5047759;28;20024;-51
2022/10/27 04:22:39;;;;;;;2.97;1.50;;;21.50;57.00;;;;;;5053323;28;20047;-49
2022/10/27 04:25:05;;;;;;;2.15;1.20;;;21.50;57.00;;;;;;5052343;28;20033;-47
2022/10/27 04:27:32;;;;;;;1.80;1.17;;;21.50;57.00;;;;;;5052169;28;20033;-51
2022/10/27 04:29:57;;;;;;;1.98;1.10;;;21.50;57.00;;;;;;5051179;28;20021;-50
2022/10/27 04:32:23;;;;;;;2.38;1.30;;;21.50;57.00;;;;;;5051971;28;20310;-47
2022/10/27 04:34:49;;;;;;;2.45;1.30;;;21.50;57.10;;;;;;5052306;28;20032;-48
2022/10/27 04:37:15;;;;;;;1.77;1.30;;;21.50;57.10;;;;;;5051804;28;20029;-51
2022/10/27 04:39:41;;;;;;;2.58;1.33;;;21.50;57.10;;;;;;5053010;28;20021;-50
2022/10/27 04:42:06;;;;;;;2.50;1.38;;;21.50;57.10;;;;;;5051271;28;20151;-46
2022/10/27 04:44:32;;;;;;;1.77;1.10;;;21.50;57.10;;;;;;5051857;28;20095;-46
2022/10/27 04:46:58;;;;;;;2.30;1.20;;;21.50;57.20;;;;;;5051796;28;20029;-49
2022/10/27 04:49:24;;;;;;;2.05;1.17;;;21.50;57.10;;;;;;5049884;28;20403;-47
2022/10/27 04:51:50;;;;;;;1.98;1.10;;;21.50;57.10;;;;;;5052141;28;20387;-50
2022/10/27 04:54:15;;;;;;;2.28;1.45;;;21.50;57.10;;;;;;5050501;28;20032;-48
2022/10/27 04:56:41;;;;;;;2.35;1.48;;;21.50;57.10;;;;;;5051528;28;20021;-47
2022/10/27 04:59:07;;;;;;;1.77;1.08;;;21.40;57.00;;;;;;5050612;28;20135;-49
2022/10/27 05:01:33;;;;;;;2.17;1.25;;;21.40;57.00;;;;;;5049370;28;20033;-53
2022/10/27 05:03:58;;;;;;;2.38;1.48;;;21.50;57.10;;;;;;5051812;28;20044;-48
2022/10/27 05:06:24;;;;;;;3.72;1.58;;;21.40;57.00;;;;;;5051359;28;20048;-48
2022/10/27 05:08:50;;;;;;;3.50;1.55;;;21.40;57.00;;;;;;5050158;28;20021;-49
2022/10/27 05:11:16;;;;;;;1.90;1.27;;;21.40;57.00;;;;;;5050939;28;20029;-49
2022/10/27 05:13:42;;;;;;;1.70;1.10;;;21.40;57.00;;;;;;5050887;28;20029;-52
2022/10/27 05:16:08;;;;;;;2.75;1.48;;;21.40;57.00;;;;;;5048818;28;20471;-47
2022/10/27 05:18:33;;;;;;;2.58;1.10;;;21.40;57.00;;;;;;5050987;28;20032;-49
2022/10/27 05:20:59;;;;;;;2.45;1.25;;;21.40;57.00;;;;;;5048800;28;20048;-48
2022/10/27 05:23:25;;;;;;;4.63;1.27;;;21.40;57.00;;;;;;5050197;28;20031;-51
2022/10/27 05:25:52;;;;;;;3.15;1.20;;;21.40;57.00;;;;;;5053451;28;20037;-47
2022/10/27 05:28:19;;;;;;;3.25;1.25;;;21.40;57.00;;;;;;5056402;28;20032;-49
2022/10/27 05:30:45;;;;;;;2.80;1.45;;;21.40;57.00;;;;;;5048504;28;20494;-46
2022/10/27 05:33:11;;;;;;;2.80;1.20;;;21.40;57.00;;;;;;5051440;28;20033;-50
2022/10/27 05:35:37;;;;;;;2.38;1.23;;;21.40;56.90;;;;;;5050616;28;20059;-53
2022/10/27 05:38:02;;;;;;;2.92;1.38;;;21.40;56.90;;;;;;5050959;28;20023;-49
2022/10/27 05:40:33;;;;;;;2.20;1.60;;;21.40;56.80;;;;;;5050522;28;20376;-48
2022/10/27 05:43:00;;;;;;;1.90;1.20;;;21.40;56.80;;;;;;5051127;28;20040;-50
2022/10/27 05:45:26;;;;;;;1.65;1.33;;;21.40;56.70;;;;;;5050444;28;20048;-51
2022/10/27 05:48:00;;;;;;;2.25;1.10;;;21.40;56.70;;;;;;5050726;28;20032;-52
2022/10/27 05:50:27;;;;;;;1.83;1.10;;;21.40;56.60;;;;;;5049906;28;20055;-53
2022/10/27 05:52:53;;;;;;;2.38;1.40;;;21.40;56.60;;;;;;5049537;28;20352;-49
2022/10/27 05:55:19;;;;;;;1.92;1.10;;;21.40;56.60;;;;;;5051700;28;20021;-48
2022/10/27 05:57:56;;;;;;;1.75;1.10;;;21.40;56.50;;;;;;5050440;28;20444;-50
2022/10/27 06:00:24;;;;;;;1.77;1.05;;;21.40;56.50;;;;;;5046607;28;20353;-51
2022/10/27 06:02:50;;;;;;;2.00;1.30;;;21.40;56.50;;;;;;5049591;28;20471;-51
2022/10/27 06:05:16;;;;;;;1.77;1.10;;;21.40;56.60;;;;;;5050894;28;20064;-51
2022/10/27 06:07:42;;;;;;;2.00;1.30;;;21.30;56.50;;;;;;5049999;28;21468;-49
2022/10/27 06:10:08;;;;;;;1.65;1.10;;;21.30;56.60;;;;;;5047534;28;20025;-48
2022/10/27 06:12:34;;;;;;;2.60;1.10;;;21.40;56.60;;;;;;5048863;28;20127;-48
2022/10/27 06:15:00;;;;;;;2.45;1.30;;;21.30;56.60;;;;;;5048350;28;20120;-53
2022/10/27 06:17:25;;;;;;;2.78;1.33;;;21.40;56.70;;;;;;5035606;28;20025;-50
2022/10/27 06:19:51;;;;;;;1.63;1.10;;;21.30;56.70;;;;;;5034006;28;20083;-51
2022/10/27 06:22:17;;;;;;;2.78;1.38;;;21.40;56.70;;;;;;5030430;28;20038;-49
2022/10/27 06:24:43;;;;;;;3.22;1.40;;;21.30;56.70;;;;;;5034563;28;20028;-48
2022/10/27 06:27:08;;;;;;;2.42;1.25;;;21.30;57.30;;;;;;5034900;28;20467;-50
2022/10/27 06:29:34;;;;;;;2.00;1.10;;;21.30;56.70;;;;;;5034786;28;20560;-50
2022/10/27 06:32:00;;;;;;;1.95;1.20;;;21.30;56.70;;;;;;5028337;28;20052;-48
2022/10/27 06:34:26;;;;;;;2.67;1.20;;;21.30;56.70;;;;;;5026775;28;20066;-52
2022/10/27 06:36:51;;;;;;;3.65;1.30;;;21.30;56.70;;;;;;5030054;28;20033;-51
2022/10/27 06:39:17;;;;;;;2.45;1.17;;;21.30;56.90;;;;;;5029883;28;20044;-48
2022/10/27 06:41:43;;;;;;;2.42;1.27;;;21.30;56.90;;;;;;5031967;28;20021;-48
2022/10/27 06:44:17;;;;;;;3.10;1.25;;;21.40;56.90;;;;;;5014164;28;20033;-50
2022/10/27 06:46:43;;;;;;;1.80;1.20;;;21.30;56.70;;;;;;5033766;28;20026;-51
2022/10/27 06:49:09;;;;;;;2.05;1.30;;;21.30;56.70;;;;;;5033926;28;20480;-48
2022/10/27 06:51:34;;;;;;;3.08;1.40;;;21.40;56.60;;;;;;5034650;28;20041;-50
2022/10/27 06:54:00;;;;;;;4.63;1.88;;;21.30;56.40;;;;;;5035028;28;20032;-49
2022/10/27 06:56:26;;;;;;;4.72;1.55;;;21.30;56.40;;;;;;5034774;28;20445;-47
2022/10/27 06:58:52;;;;;;;2.67;1.48;;;21.30;56.30;;;;;;5034451;28;20065;-47
2022/10/27 07:01:17;;;;;;;3.30;1.20;;;21.30;56.30;;;;;;5034427;28;20025;-52
2022/10/27 07:03:43;;;;;;;2.28;1.30;;;21.30;56.20;;;;;;5035023;28;20033;-48
2022/10/27 07:06:09;;;;;;;2.50;1.27;;;21.30;56.20;;;;;;5034261;28;20460;-48
2022/10/27 07:08:35;;;;;;;2.72;1.40;;;21.30;56.10;;;;;;5034139;28;20037;-47
2022/10/27 07:11:00;;;;;;;2.25;1.10;;;21.30;56.10;;;;;;5033793;28;20445;-46
2022/10/27 07:13:26;;;;;;;2.58;1.40;;;21.30;56.00;;;;;;5034419;28;20033;-51
2022/10/27 07:15:52;;;;;;;4.00;1.30;;;21.30;56.10;;;;;;5043911;28;20384;-50
2022/10/27 07:18:18;;;;;;;2.78;1.42;;;21.30;56.10;;;;;;5053555;28;20037;-48
2022/10/27 07:20:45;;;;;;;3.33;1.38;;;21.30;56.10;;;;;;5047517;28;20033;-48
2022/10/27 07:23:11;;;;;;;3.58;1.58;;;21.30;56.00;;;;;;5054507;28;20039;-48
2022/10/27 07:25:38;;;;;;;2.05;1.17;;;21.30;56.00;;;;;;5054530;28;20141;-48
2022/10/27 07:28:05;;;;;;;3.15;1.30;;;21.30;56.00;;;;;;5054087;28;20040;-47
2022/10/27 07:30:38;;;;;;;1.80;1.20;;;21.30;56.00;;;;;;5047034;28;20033;-48
2022/10/27 07:33:04;;;;;;;2.45;1.33;;;21.30;55.90;;;;;;5046132;28;20356;-54
2022/10/27 07:35:32;;;;;;;2.80;1.40;;;21.30;55.90;;;;;;5051617;28;20029;-53
2022/10/27 07:37:57;;;;;;;3.00;1.27;;;21.30;55.90;;;;;;5053501;28;20029;-48
2022/10/27 07:40:23;;;;;;;4.32;1.50;;;21.30;55.90;;;;;;5053780;28;20043;-48
2022/10/27 07:42:52;;;;;;;3.88;1.27;;;21.30;55.90;;;;;;5052303;28;20064;-50
2022/10/27 07:45:20;;;;;;;2.90;1.30;;;21.30;55.80;;;;;;5053269;28;20037;-50
2022/10/27 07:47:51;;;;;;;2.17;1.08;;;21.30;55.80;;;;;;5053443;28;20025;-51
2022/10/27 07:50:19;;;;;;;1.88;1.15;;;21.30;55.90;;;;;;5048763;28;20066;-50
2022/10/27 07:52:47;;;;;;;2.10;1.40;;;21.30;55.90;;;;;;5052142;28;20087;-51
2022/10/27 07:55:14;;;;;;;2.63;1.20;;;21.30;55.80;;;;;;5050710;28;20091;-50
2022/10/27 07:57:41;;;;;;;2.35;1.25;;;21.30;55.90;;;;;;5050579;28;20064;-51
2022/10/27 08:00:13;;;;;;;1.77;0.95;;;21.30;55.90;;;;;;5055785;28;20029;-47
2022/10/27 08:02:40;;;;;;;2.47;1.33;;;21.30;55.90;;;;;;5057584;28;20033;-51
2022/10/27 08:05:07;;;;;;;3.10;1.23;;;21.30;55.90;;;;;;5056596;28;20475;-46
2022/10/27 08:07:33;;;;;;;3.05;1.33;;;21.30;55.90;;;;;;5057794;28;20033;-51
2022/10/27 08:09:58;;;;;;;2.75;1.27;;;21.30;55.90;;;;;;5047975;28;20032;-51
2022/10/27 08:12:24;;;;;;;2.65;1.20;;;21.30;55.90;;;;;;5056818;28;20021;-47
2022/10/27 08:14:50;;;;;;;2.35;1.30;;;21.30;55.90;;;;;;5051645;28;20507;-52
2022/10/27 08:17:16;;;;;;;3.55;1.58;;;21.30;55.90;;;;;;5037900;28;20032;-48
2022/10/27 08:19:42;;;;;;;2.22;1.10;;;21.30;55.90;;;;;;5035451;28;20032;-48
2022/10/27 08:22:08;;;;;;;2.78;1.30;;;21.30;55.90;;;;;;5037568;28;20326;-51
2022/10/27 08:24:33;;;;;;;2.63;1.10;;;21.30;56.00;;;;;;5037158;28;20116;-50
2022/10/27 08:27:00;;;;;;;1.77;1.17;;;21.30;56.00;;;;;;5036906;28;20447;-50
2022/10/27 08:29:26;;;;;;;2.60;1.25;;;21.30;56.00;;;;;;5036842;28;20033;-49
2022/10/27 08:31:52;;;;;;;3.22;1.20;;;21.30;56.00;;;;;;5036973;28;20025;-52
2022/10/27 08:34:18;;;;;;;2.28;1.00;;;21.30;56.10;;;;;;5035303;28;20040;-49
2022/10/27 08:36:44;;;;;;;2.33;1.30;;;21.30;56.10;;;;;;5037074;28;20021;-49
2022/10/27 08:39:11;;;;;;;3.47;1.08;;;21.30;56.10;;;;;;5037199;28;20095;-47
2022/10/27 08:42:24;;;;;;;3.00;1.33;;;21.40;56.20;;;;;;5036400;28;20095;-49
2022/10/27 08:44:59;;;;;;;2.38;1.20;;;21.30;56.20;;;;;;4949722;28;20044;-46
2022/10/27 08:47:25;;;;;;;2.67;1.27;;;21.30;56.20;;;;;;5037278;28;20045;-52
2022/10/27 08:50:02;;;;;;;2.15;1.02;;;21.30;56.20;;;;;;5036300;28;20379;-49
2022/10/27 08:52:49;;;;;;;2.40;1.00;;;21.30;56.30;;;;;;5035284;28;20457;-50
2022/10/27 08:55:14;;;;;;;2.30;1.20;;;21.30;56.30;;;;;;5036462;28;20041;-49
2022/10/27 08:58:11;;;;;;;2.92;1.20;;;21.40;56.40;;;;;;5036954;28;20333;-48
2022/10/27 09:00:50;;;;;;;2.08;0.90;;;21.40;56.40;;;;;;5036675;28;20029;-47
2022/10/27 09:03:57;;;;;;;1.85;1.00;;;21.40;56.40;;;;;;5035696;28;20025;-48
2022/10/27 09:06:28;;;;;;;2.20;0.95;;;21.40;56.40;;;;;;5014476;28;20049;-49
2022/10/27 09:09:31;;;;;;;2.30;1.10;;;21.40;56.50;;;;;;5033007;28;20029;-51
2022/10/27 09:12:23;;;;;;;1.67;0.80;;;21.40;56.50;;;;;;5032195;28;20045;-48
2022/10/27 09:15:07;;;;;;;1.05;0.77;;;21.40;56.50;;;;;;5037616;28;20037;-48
2022/10/27 09:17:43;;;;;;;2.60;0.93;;;21.40;56.80;;;;;;5050176;28;20063;-50
2022/10/27 09:20:22;;;;;;;2.00;0.93;;;21.40;57.00;;;;;;5050809;28;20351;-49
2022/10/27 09:22:50;;;;;;;1.98;1.02;;;21.40;57.20;;;;;;5053925;28;20032;-51
2022/10/27 09:25:19;;;;;;;1.80;1.10;;;21.40;57.30;;;;;;5047821;28;20394;-49
2022/10/27 09:27:47;;;;;;;1.98;1.00;;;21.40;57.30;;;;;;5054478;28;20178;-52
2022/10/27 09:30:13;;;;;;;2.30;0.93;;;21.40;57.40;;;;;;5043995;28;20048;-47
2022/10/27 09:32:42;;;;;;;2.58;0.90;;;21.50;57.50;;;;;;5049302;28;20037;-52
2022/10/27 09:35:13;;;;;;;2.55;0.98;;;21.50;57.50;;;;;;5054738;28;20032;-48
2022/10/27 09:37:41;;;;;;;2.60;0.82;;;21.50;57.60;;;;;;5043001;28;20033;-51
2022/10/27 09:40:24;;;;;;;1.45;1.05;;;21.50;57.60;;;;;;5044335;28;20040;-50
2022/10/27 09:42:52;;;;;;;2.15;1.13;;;21.50;57.50;;;;;;5052341;28;20021;-50
2022/10/27 09:45:20;;;;;;;2.40;1.00;;;21.50;57.50;;;;;;5053057;28;20035;-50
2022/10/27 09:48:04;;;;;;;1.38;0.90;;;21.50;57.40;;;;;;5050743;28;20433;-48
2022/10/27 09:50:56;;;;;;;2.08;1.10;;;21.60;57.40;;;;;;5048372;28;21199;-51
2022/10/27 09:53:46;;;;;;;1.65;0.95;;;21.60;57.20;;;;;;5053426;28;20118;-47
2022/10/27 09:56:29;;;;;;;2.13;1.05;;;21.60;57.20;;;;;;5047814;28;20088;-45
2022/10/27 09:59:01;;;;;;;1.13;0.80;;;21.60;57.10;;;;;;5050932;28;20040;-46
2022/10/27 10:01:50;;;;;;;4.78;1.17;;;21.60;57.10;;;;;;5045736;28;20029;-49
2022/10/27 10:04:24;;;;;;;2.13;1.10;;;21.60;57.00;;;;;;5043804;28;20084;-47
2022/10/27 10:07:31;;;;;;;1.42;0.73;;;21.60;57.00;;;;;;5043121;28;20053;-46
2022/10/27 10:10:24;;;;;;;2.05;0.80;;;21.60;56.90;;;;;;5046957;28;20035;-46
2022/10/27 10:13:13;;;;;;;3.05;1.30;;;21.70;57.10;;;;;;5054254;28;20448;-46
2022/10/27 10:15:44;;;;;;;2.17;1.00;;;21.60;57.00;;;;;;5054807;28;20140;-49
2022/10/27 10:18:22;;;;;;;2.00;1.02;;;21.70;57.00;;;;;;5054172;28;20059;-46
2022/10/27 10:20:56;;;;;;;1.95;0.80;;;21.70;56.90;;;;;;5053397;28;20037;-45
2022/10/27 10:23:25;;;;;;;4.88;1.00;;;21.70;56.80;;;;;;5052309;28;20415;-49
2022/10/27 10:25:54;;;;;;;2.95;1.10;;;21.70;56.90;;;;;;5054099;28;20048;-48
2022/10/27 10:28:38;;;;;;;2.00;0.90;;;21.70;56.90;;;;;;5050479;28;20086;-49
2022/10/27 10:31:11;;;;;;;2.78;0.95;;;21.70;56.90;;;;;;5043132;28;20025;-46
2022/10/27 10:33:40;;;;;;;2.15;0.90;;;21.80;57.00;;;;;;5052074;28;20094;-56
2022/10/27 10:36:36;;;;;;;1.45;0.90;;;21.70;57.10;;;;;;5053868;28;20521;-47
2022/10/27 10:39:21;;;;;;;2.42;1.10;;;21.80;57.20;;;;;;5041345;28;20064;-48
2022/10/27 10:42:06;;;;;;;;;;;21.80;57.40;;;;;;5049955;28;20040;-50
2022/10/27 10:44:32;;;;;;;1.65;1.00;;;21.80;57.50;;;;;;5050893;28;20358;-58
2022/10/27 10:46:59;;;;;;;1.73;0.98;;;21.80;57.70;;;;;;5051771;28;20032;-56
2022/10/27 10:49:36;;;;;;;1.85;1.00;;;21.80;57.70;;;;;;5053766;28;20051;-59
2022/10/27 10:52:13;;;;;;;2.33;0.90;;;21.90;57.70;;;;;;5040400;28;20051;-59
2022/10/27 10:54:43;;;;;;;1.65;0.85;;;21.90;57.60;;;;;;5053332;28;20025;-59
2022/10/27 10:57:39;;;;;;;1.80;0.80;;;22.00;57.40;;;;;;5061867;28;20025;-56
2022/10/27 11:00:13;;;;;;;1.45;0.70;;;22.20;57.20;;;;;;5055759;28;20098;-59
2022/10/27 11:02:40;;;;;;;1.70;0.80;;;22.30;57.00;;;;;;5054328;28;20102;-58
2022/10/27 11:05:18;;;;;;;4.18;1.27;;;22.40;56.90;;;;;;5053931;28;20021;-57
2022/10/27 11:07:47;;;;;;;1.90;0.77;;;22.50;56.70;;;;;;5054293;28;20069;-58
2022/10/27 11:10:38;;;;;;;1.20;0.70;;;22.60;56.40;;;;;;5054970;28;20025;-56
2022/10/27 11:13:18;;;;;;;1.67;0.80;;;22.70;56.20;;;;;;5053903;28;20079;-55
2022/10/27 11:15:47;;;;;;;2.78;0.70;;;22.90;55.90;;;;;;5048689;28;20103;-55
2022/10/27 11:18:20;;;;;;;2.20;0.80;;;23.00;55.60;;;;;;5047574;28;20025;-52
2022/10/27 11:21:05;;;;;;;2.00;0.77;;;23.00;55.30;;;;;;5050087;28;20455;-57
2022/10/27 11:23:43;;;;;;;1.92;0.70;;;23.20;55.10;;;;;;5050883;28;20037;-55
2022/10/27 11:26:09;;;;;;;2.67;0.95;;;23.30;54.80;;;;;;5051468;28;20041;-55
2022/10/27 11:28:57;;;;;;;1.98;0.73;;;23.30;54.50;;;;;;5051520;28;20508;-54
2022/10/27 11:31:31;;;;;;;1.52;0.82;;;23.40;54.30;;;;;;5055123;28;20052;-55
2022/10/27 11:34:06;;;;;;;2.15;1.00;;;23.50;54.10;;;;;;5055953;28;20035;-53
2022/10/27 11:36:56;;;;;;;2.20;0.77;;;23.60;53.90;;;;;;5054327;28;20033;-54
2022/10/27 11:39:52;;;;;;;2.03;0.60;;;23.70;53.60;;;;;;5054487;28;20032;-55
2022/10/27 11:42:26;;;;;;;;;;;23.70;53.40;;;;;;5072932;28;20029;-54
2022/10/27 11:45:06;;;;;;;0.98;0.50;;;23.80;53.30;;;;;;5043125;28;19920;-53
2022/10/27 11:47:43;;;;;;;1.38;0.75;;;23.90;53.10;;;;;;5077603;28;20083;-55
2022/10/27 11:50:23;;;;;;;2.15;0.88;;;23.90;52.90;;;;;;5066936;28;20029;-55
2022/10/27 11:52:58;;;;;;;2.00;0.80;;;24.00;52.70;;;;;;5057347;28;20025;-56
2022/10/27 11:55:53;;;;;;;2.00;0.80;;;24.00;52.50;;;;;;5055129;28;20036;-54
2022/10/27 11:58:46;;;;;;;1.35;0.63;;;24.10;52.30;;;;;;5054881;28;20032;-54
2022/10/27 12:01:34;;;;;;;1.45;0.82;;;24.10;52.70;;;;;;5053943;28;20021;-55
2022/10/27 12:04:18;;;;;;;1.20;0.80;;;24.20;52.00;;;;;;5053902;28;20017;-54
2022/10/27 12:07:39;;;;;;;1.63;0.65;;;24.20;51.80;;;;;;5054446;28;20048;-53
2022/10/27 12:10:14;;;;;;;2.55;0.60;;;24.30;51.60;;;;;;5055131;28;20039;-55
2022/10/27 12:12:50;;;;;;;2.50;0.93;;;24.30;51.50;;;;;;5053361;28;20036;-54
2022/10/27 12:15:44;;;;;;;1.08;0.60;;;24.40;52.00;;;;;;5053822;28;20057;-55
2022/10/27 12:18:45;;;;;;;1.88;0.70;;;24.40;51.30;;;;;;5049094;28;20075;-54
2022/10/27 12:21:35;;;;;;;1.42;0.65;;;24.40;51.10;;;;;;5052300;28;20025;-55
2022/10/27 12:24:05;;;;;;;0.95;0.75;;;24.50;51.00;;;;;;5046768;28;20330;-53
2022/10/27 12:26:46;;;;;;;1.65;0.70;;;24.50;50.90;;;;;;5061624;28;20119;-54
2022/10/27 12:29:20;;;;;;;1.10;0.70;;;24.60;50.80;;;;;;5054692;28;20075;-53
2022/10/27 12:32:01;;;;;;;1.25;0.60;;;24.60;50.70;;;;;;5055165;28;20431;-55
2022/10/27 12:34:50;;;;;;;1.10;0.60;;;24.60;50.60;;;;;;5055212;28;20048;-55
2022/10/27 12:37:31;;;;;;;2.17;0.82;;;24.70;50.50;;;;;;5054720;28;20084;-57
2022/10/27 12:40:16;;;;;;;1.33;0.60;;;24.70;50.40;;;;;;5055761;28;20028;-54
2022/10/27 12:43:02;;;;;;;1.60;0.60;;;24.70;50.40;;;;;;5043451;28;20041;-57
2022/10/27 12:45:53;;;;;;;2.00;0.70;;;24.80;50.30;;;;;;5055988;28;20037;-53
2022/10/27 12:48:34;;;;;;;2.45;0.70;;;24.80;50.20;;;;;;5055039;28;20029;-57
2022/10/27 12:51:41;;;;;;;1.65;0.77;;;24.80;50.20;;;;;;5059295;28;20036;-57
2022/10/27 12:54:40;;;;;;;1.10;0.90;;;24.90;50.10;;;;;;5060998;28;20089;-56
2022/10/27 12:57:30;;;;;;;3.53;0.90;;;24.90;50.00;;;;;;5045013;28;20106;-57
2022/10/27 13:00:15;;;;;;;1.02;0.52;;;24.90;50.00;;;;;;5056733;28;20384;-52
2022/10/27 13:03:06;;;;;;;1.05;0.70;;;24.90;49.90;;;;;;5051002;28;20029;-57
2022/10/27 13:05:55;;;;;;;2.22;1.20;;;25.00;49.90;;;;;;5051185;28;20068;-58
2022/10/27 13:08:52;;;;;;;2.47;1.10;;;25.00;49.90;;;;;;5054355;28;20491;-52
2022/10/27 13:11:42;;;;;;;1.70;0.90;;;25.00;49.90;;;;;;5054307;28;20029;-48
2022/10/27 13:14:37;;;;;;;3.97;0.93;;;25.00;49.80;;;;;;5048291;28;20717;-53
2022/10/27 13:17:32;;;;;;;3.15;1.10;;;25.00;49.70;;;;;;5057743;28;20059;-51